Home   Weather   Italy   Venice   Past weeks
Flag for Italy

Past Weather in Venice, Italy — Yesterday and Last 2 Weeks

Currently: 81 °F. Sunny. (Weather station: Venice / Tessera, Italy). See more current weather

Past Weather in Venice — Graph

°F

Venice Temperature Yesterday

Maximum temperature yesterday: 86 °F (at 2:50 pm)
Minimum temperature yesterday: 68 °F (at 3:50 am)
Average temperature yesterday: 77 °F

High & Low Weather Summary for the Past Weeks

 TemperatureHumidityPressure
High93 °F (Jul 18, 3:50 pm)94% (Jul 23, 1:20 am)30.09 "Hg (Jul 23, 1:20 am)
Low66 °F (Jul 16, 2:20 am)32% (Jul 18, 1:50 pm)29.77 "Hg (Jul 18, 2:50 pm)
Average77 °F70%29.91 "Hg
* Reported Jul 15 9:20 am — Jul 30 9:20 am, Venice. Weather by CustomWeather, © 2021

Note: Actual official high and low records may vary slightly from our data, if they occured in-between our weather recording intervals... More about our weather records

Venice Weather History for the Previous 24 Hours

Scroll right to see more
 ConditionsComfort  
Time TempWeatherWind HumidityBarometerVisibility
9:20 am
Fri, Jul 30
82 °FSunny.2 mph66%29.89 "Hg10 mi
8:50 am79 °FClear.3 mph79%29.89 "Hg6 mi
8:20 am75 °FClear.3 mph83%29.89 "Hg6 mi
7:50 am73 °FSunny.5 mph89%29.89 "Hg10 mi
7:20 am73 °FSunny.6 mph89%29.86 "Hg10 mi
6:50 am72 °FSunny.6 mph88%29.86 "Hg10 mi
6:20 am72 °FSunny.6 mph88%29.86 "Hg10 mi
5:50 am72 °FClear.6 mph83%29.86 "Hg10 mi
5:20 am73 °FClear.5 mph83%29.86 "Hg10 mi
4:50 am73 °FClear.2 mph83%29.86 "Hg10 mi
4:20 am73 °FClear.3 mph89%29.86 "Hg10 mi
3:20 am75 °FClear.2 mph78%29.89 "Hg10 mi
2:50 am75 °FClear.2 mph78%29.89 "Hg10 mi
2:20 am75 °FClear.5 mph83%29.86 "Hg10 mi
1:50 am75 °FClear.5 mph83%29.86 "Hg10 mi
1:20 am75 °FClear.3 mph83%29.89 "Hg10 mi
12:50 am77 °FClear.6 mph83%29.89 "Hg10 mi
12:20 am79 °FClear.9 mph74%29.89 "Hg10 mi
11:50 pm
Thu, Jul 29
79 °FClear.8 mph79%29.89 "Hg10 mi
11:20 pm79 °FClear.5 mph74%29.89 "Hg10 mi
10:50 pm79 °FClear.5 mph74%29.89 "Hg10 mi
10:20 pm79 °FClear.5 mph74%29.89 "Hg10 mi
9:50 pm79 °FClear.5 mph70%29.86 "Hg10 mi
9:20 pm79 °FClear.6 mph70%29.86 "Hg10 mi
8:50 pm81 °FClear.5 mph66%29.86 "Hg10 mi
8:20 pm82 °FSunny.6 mph58%29.86 "Hg10 mi
7:50 pm84 °FSunny.6 mph55%29.86 "Hg10 mi
7:20 pm84 °FSunny.6 mph58%29.86 "Hg10 mi
6:50 pm84 °FPassing clouds.7 mph62%29.86 "HgN/A
6:20 pm84 °FPassing clouds.7 mph66%29.86 "HgN/A
5:50 pm84 °FPassing clouds.8 mph62%29.86 "HgN/A
5:20 pm86 °FPassing clouds.7 mph59%29.86 "HgN/A
4:50 pm86 °FPassing clouds.7 mph59%29.89 "HgN/A
4:20 pm86 °FPassing clouds.6 mph52%29.89 "HgN/A
3:50 pm86 °FPassing clouds.6 mph55%29.89 "HgN/A
3:20 pm86 °FPassing clouds.5 mph59%29.89 "HgN/A
2:50 pm86 °FPassing clouds.5 mph52%29.92 "HgN/A
1:50 pm84 °FSunny.6 mph58%29.92 "Hg10 mi
1:20 pm84 °FPassing clouds.5 mph58%29.92 "HgN/A
12:50 pm82 °FSunny.6 mph62%29.92 "Hg10 mi
12:20 pm82 °FSunny.6 mph62%29.92 "Hg10 mi
11:50 am82 °FPassing clouds.5 mph58%29.95 "HgN/A
11:20 am82 °FPassing clouds.5 mph62%29.95 "HgN/A
10:50 am81 °FPassing clouds.3 mph62%29.95 "HgN/A
10:20 am81 °FPassing clouds.3 mph62%29.95 "HgN/A
Weather by CustomWeather, © 2021

See weather overview